createdAt,value
2019-02-11T00:00:57.002Z,1009.12
2019-02-11T00:01:57.484Z,1009.16
2019-02-11T00:02:56.877Z,1009.17
2019-02-11T00:04:00.191Z,1009.14
2019-02-11T00:04:57.546Z,1009.12
2019-02-11T00:05:58.374Z,1009.16
2019-02-11T00:06:57.100Z,1009.22
2019-02-11T00:07:56.930Z,1009.24
2019-02-11T00:08:56.988Z,1009.25
2019-02-11T00:09:57.037Z,1009.32
2019-02-11T00:10:57.236Z,1009.31
2019-02-11T00:11:56.938Z,1009.3
2019-02-11T00:12:57.076Z,1009.28
2019-02-11T00:13:57.274Z,1009.31
2019-02-11T00:14:56.864Z,1009.35
2019-02-11T00:15:56.992Z,1009.39
2019-02-11T00:16:56.978Z,1009.39
2019-02-11T00:17:56.867Z,1009.35
2019-02-11T00:18:56.842Z,1009.39
2019-02-11T00:19:57.097Z,1009.39
2019-02-11T00:20:57.279Z,1009.45
2019-02-11T00:21:57.106Z,1009.45
2019-02-11T00:22:57.423Z,1009.46
2019-02-11T00:23:57.851Z,1009.51
2019-02-11T00:24:57.662Z,1009.5
2019-02-11T00:25:57.047Z,1009.52
2019-02-11T00:26:57.370Z,1009.49
2019-02-11T00:27:56.743Z,1009.48
2019-02-11T00:28:57.367Z,1009.48
2019-02-11T00:29:57.309Z,1009.43
2019-02-11T00:30:56.815Z,1009.44
2019-02-11T00:31:57.821Z,1009.55
2019-02-11T00:32:57.678Z,1009.52
2019-02-11T00:33:57.126Z,1009.53
2019-02-11T00:34:58.266Z,1009.56
2019-02-11T00:35:58.432Z,1009.56
2019-02-11T00:36:57.019Z,1009.58
2019-02-11T00:37:58.887Z,1009.63
2019-02-11T00:38:56.938Z,1009.65
2019-02-11T00:39:56.770Z,1009.64
2019-02-11T00:40:57.459Z,1009.53
2019-02-11T00:41:58.695Z,1009.54
2019-02-11T00:42:57.117Z,1009.7
2019-02-11T00:43:57.582Z,1009.69
2019-02-11T00:44:56.787Z,1009.67
2019-02-11T00:45:57.006Z,1009.64
2019-02-11T00:46:56.588Z,1009.68
2019-02-11T00:47:56.814Z,1009.64
2019-02-11T00:48:57.030Z,1009.65
2019-02-11T00:49:56.966Z,1009.58
2019-02-11T00:50:57.327Z,1009.52
2019-02-11T00:51:57.736Z,1009.6
2019-02-11T00:52:57.144Z,1009.64
2019-02-11T00:53:58.744Z,1009.65
2019-02-11T00:54:57.186Z,1009.63
2019-02-11T00:55:57.171Z,1009.67
2019-02-11T00:56:57.063Z,1009.63
2019-02-11T00:57:57.675Z,1009.64
2019-02-11T00:58:57.576Z,1009.66
2019-02-11T00:59:58.835Z,1009.67
2019-02-11T01:00:57.307Z,1009.65
2019-02-11T01:01:56.884Z,1009.68
2019-02-11T01:02:57.145Z,1009.7
2019-02-11T01:03:56.816Z,1009.72
2019-02-11T01:04:56.786Z,1009.71
2019-02-11T01:05:57.143Z,1009.72
2019-02-11T01:06:57.114Z,1009.74
2019-02-11T01:07:57.563Z,1009.74
2019-02-11T01:08:56.811Z,1009.7
2019-02-11T01:09:57.289Z,1009.72
2019-02-11T01:10:57.367Z,1009.72
2019-02-11T01:11:56.838Z,1009.78
2019-02-11T01:12:57.668Z,1009.8
2019-02-11T01:13:57.384Z,1009.81
2019-02-11T01:14:57.701Z,1009.82
2019-02-11T01:15:57.411Z,1009.78
2019-02-11T01:16:57.181Z,1009.81
2019-02-11T01:17:56.923Z,1009.84
2019-02-11T01:18:57.766Z,1009.81
2019-02-11T01:19:57.256Z,1009.77
2019-02-11T01:20:57.035Z,1009.77
2019-02-11T01:21:58.600Z,1009.85
2019-02-11T01:22:57.377Z,1009.81
2019-02-11T01:23:56.906Z,1009.81
2019-02-11T01:24:56.605Z,1009.8
2019-02-11T01:25:56.907Z,1009.91
2019-02-11T01:26:57.396Z,1009.93
2019-02-11T01:27:57.183Z,1009.93
2019-02-11T01:28:57.110Z,1010.01
2019-02-11T01:29:56.847Z,1010.03
2019-02-11T01:30:57.317Z,1010.07
2019-02-11T01:31:57.307Z,1010.11
2019-02-11T01:32:56.799Z,1010.1
2019-02-11T01:33:57.048Z,1010.15
2019-02-11T01:34:57.325Z,1010.15
2019-02-11T01:35:57.123Z,1010.17
2019-02-11T01:36:57.160Z,1010.21
2019-02-11T01:37:56.959Z,1010.29
2019-02-11T01:38:57.357Z,1010.26
2019-02-11T01:39:57.171Z,1010.3
2019-02-11T01:40:57.267Z,1010.28
2019-02-11T01:41:57.413Z,1010.35
2019-02-11T01:42:57.348Z,1010.35
2019-02-11T01:43:56.670Z,1010.45
2019-02-11T01:44:57.285Z,1010.49
2019-02-11T01:45:57.802Z,1010.45
2019-02-11T01:46:56.728Z,1010.51
2019-02-11T01:47:58.804Z,1010.47
2019-02-11T01:48:56.951Z,1010.53
2019-02-11T01:49:56.855Z,1010.52
2019-02-11T01:50:58.815Z,1010.55
2019-02-11T01:51:56.647Z,1010.52
2019-02-11T01:52:56.696Z,1010.52
2019-02-11T01:53:56.592Z,1010.54
2019-02-11T01:54:57.083Z,1010.54
2019-02-11T01:55:56.932Z,1010.54
2019-02-11T01:56:56.804Z,1010.58
2019-02-11T01:57:57.179Z,1010.55
2019-02-11T01:58:57.034Z,1010.54
2019-02-11T01:59:56.742Z,1010.56
2019-02-11T02:00:56.946Z,1010.56
2019-02-11T02:01:56.925Z,1010.58
2019-02-11T02:02:56.904Z,1010.58
2019-02-11T02:03:57.287Z,1010.51
2019-02-11T02:04:56.933Z,1010.54
2019-02-11T02:05:57.249Z,1010.55
2019-02-11T02:06:57.901Z,1010.57
2019-02-11T02:07:58.000Z,1010.53
2019-02-11T02:08:57.280Z,1010.61
2019-02-11T02:09:56.824Z,1010.66
2019-02-11T02:10:56.834Z,1010.68
2019-02-11T02:11:57.421Z,1010.64
2019-02-11T02:12:58.678Z,1010.61
2019-02-11T02:13:56.971Z,1010.66
2019-02-11T02:14:56.791Z,1010.64
2019-02-11T02:15:57.410Z,1010.7
2019-02-11T02:16:57.355Z,1010.69
2019-02-11T02:17:57.156Z,1010.7
2019-02-11T02:18:56.808Z,1010.71
2019-02-11T02:19:57.234Z,1010.71
2019-02-11T02:20:57.139Z,1010.72
2019-02-11T02:21:57.471Z,1010.73
2019-02-11T02:22:56.963Z,1010.74
2019-02-11T02:23:56.771Z,1010.78
2019-02-11T02:24:58.804Z,1010.71
2019-02-11T02:25:57.345Z,1010.76
2019-02-11T02:26:56.875Z,1010.77
2019-02-11T02:27:56.926Z,1010.81
2019-02-11T02:28:56.855Z,1010.84
2019-02-11T02:29:57.531Z,1010.86
2019-02-11T02:30:56.945Z,1010.89
2019-02-11T02:31:56.716Z,1010.92
2019-02-11T02:32:57.043Z,1010.95
2019-02-11T02:33:57.255Z,1010.96
2019-02-11T02:34:57.070Z,1010.98
2019-02-11T02:35:57.614Z,1010.98
2019-02-11T02:36:56.771Z,1010.99
2019-02-11T02:37:57.184Z,1011.02
2019-02-11T02:38:57.398Z,1011
2019-02-11T02:39:56.912Z,1011.07
2019-02-11T02:40:56.838Z,1011.01
2019-02-11T02:41:56.664Z,1011.08
2019-02-11T02:42:56.850Z,1011.08
2019-02-11T02:43:57.455Z,1011.11
2019-02-11T02:44:57.176Z,1011.09
2019-02-11T02:45:57.348Z,1011.17
2019-02-11T02:46:57.143Z,1011.13
2019-02-11T02:47:56.831Z,1011.16
2019-02-11T02:48:58.097Z,1011.18
2019-02-11T02:49:57.899Z,1011.16
2019-02-11T02:50:57.394Z,1011.21
2019-02-11T02:51:57.093Z,1011.18
2019-02-11T02:52:56.999Z,1011.23
2019-02-11T02:53:57.689Z,1011.3
2019-02-11T02:54:56.631Z,1011.27
2019-02-11T02:55:58.708Z,1011.29
2019-02-11T02:56:57.336Z,1011.27
2019-02-11T02:57:58.695Z,1011.4
2019-02-11T02:58:57.365Z,1011.4
2019-02-11T02:59:57.120Z,1011.44
2019-02-11T03:00:57.169Z,1011.5
2019-02-11T03:01:56.880Z,1011.45
2019-02-11T03:02:57.061Z,1011.48
2019-02-11T03:03:56.686Z,1011.53
2019-02-11T03:04:56.901Z,1011.55
2019-02-11T03:05:57.317Z,1011.57
2019-02-11T03:06:58.624Z,1011.63
2019-02-11T03:07:57.639Z,1011.63
2019-02-11T03:08:57.259Z,1011.67
2019-02-11T03:09:57.618Z,1011.7
2019-02-11T03:10:56.769Z,1011.68
2019-02-11T03:11:56.945Z,1011.73
2019-02-11T03:12:57.445Z,1011.77
2019-02-11T03:14:06.600Z,1011.75
2019-02-11T03:14:57.027Z,1011.78
2019-02-11T03:15:56.979Z,1011.83
2019-02-11T03:16:57.343Z,1011.86
2019-02-11T03:17:56.961Z,1011.86
2019-02-11T03:18:57.315Z,1011.86
2019-02-11T03:19:56.668Z,1011.94
2019-02-11T03:20:56.821Z,1011.94
2019-02-11T03:21:58.811Z,1011.93
2019-02-11T03:22:58.672Z,1011.95
2019-02-11T03:23:57.874Z,1011.97
2019-02-11T03:24:57.055Z,1012.01
2019-02-11T03:25:57.409Z,1012.01
2019-02-11T03:26:56.935Z,1012.01
2019-02-11T03:27:56.742Z,1012.02
2019-02-11T03:28:57.003Z,1012.08
2019-02-11T03:29:56.942Z,1012.03
2019-02-11T03:30:56.868Z,1012.08
2019-02-11T03:32:00.352Z,1012.1
2019-02-11T03:32:56.732Z,1012.15
2019-02-11T03:33:56.951Z,1012.15
2019-02-11T03:34:57.616Z,1012.18
2019-02-11T03:35:56.664Z,1012.19
2019-02-11T03:36:56.999Z,1012.21
2019-02-11T03:37:56.960Z,1012.18
2019-02-11T03:38:56.728Z,1012.24
2019-02-11T03:39:56.880Z,1012.24
2019-02-11T03:40:56.976Z,1012.28
2019-02-11T03:41:57.017Z,1012.32
2019-02-11T03:42:57.029Z,1012.3
2019-02-11T03:43:58.618Z,1012.36
2019-02-11T03:44:56.879Z,1012.33
2019-02-11T03:45:57.142Z,1012.4
2019-02-11T03:46:56.774Z,1012.41
2019-02-11T03:47:57.578Z,1012.41
2019-02-11T03:48:57.213Z,1012.35
2019-02-11T03:49:56.919Z,1012.37
2019-02-11T03:50:56.890Z,1012.42
2019-02-11T03:51:57.113Z,1012.44
2019-02-11T03:52:58.331Z,1012.43
2019-02-11T03:53:57.403Z,1012.45
2019-02-11T03:54:57.030Z,1012.5
2019-02-11T03:55:57.083Z,1012.55
2019-02-11T03:56:58.743Z,1012.55
2019-02-11T03:57:57.149Z,1012.54
2019-02-11T03:58:56.883Z,1012.57
2019-02-11T03:59:56.861Z,1012.6
2019-02-11T04:00:57.102Z,1012.68
2019-02-11T04:01:58.728Z,1012.68
2019-02-11T04:02:57.083Z,1012.68
2019-02-11T04:03:56.777Z,1012.68
2019-02-11T04:04:56.890Z,1012.73
2019-02-11T04:05:56.701Z,1012.77
2019-02-11T04:06:57.712Z,1012.78
2019-02-11T04:07:57.102Z,1012.79
2019-02-11T04:08:56.925Z,1012.8
2019-02-11T04:09:56.758Z,1012.85
2019-02-11T04:10:57.248Z,1012.85
2019-02-11T04:11:57.501Z,1012.93
2019-02-11T04:12:57.276Z,1012.92
2019-02-11T04:13:56.924Z,1012.96
2019-02-11T04:14:57.018Z,1012.97
2019-02-11T04:15:57.203Z,1013.01
2019-02-11T04:16:56.650Z,1013.02
2019-02-11T04:17:56.864Z,1013.06
2019-02-11T04:18:57.181Z,1013.06
2019-02-11T04:19:56.795Z,1013.08
2019-02-11T04:20:57.146Z,1013.12
2019-02-11T04:21:56.736Z,1013.1
2019-02-11T04:22:56.795Z,1013.14
2019-02-11T04:23:57.112Z,1013.15
2019-02-11T04:24:58.271Z,1013.2
2019-02-11T04:25:57.339Z,1013.14
2019-02-11T04:26:57.197Z,1013.2
2019-02-11T04:27:57.423Z,1013.22
2019-02-11T04:28:57.056Z,1013.24
2019-02-11T04:29:57.048Z,1013.27
2019-02-11T04:30:56.895Z,1013.27
2019-02-11T04:31:57.277Z,1013.33
2019-02-11T04:32:57.069Z,1013.32
2019-02-11T04:33:58.458Z,1013.33
2019-02-11T04:34:57.604Z,1013.33
2019-02-11T04:35:57.126Z,1013.36
2019-02-11T04:36:56.825Z,1013.36
2019-02-11T04:37:56.883Z,1013.41
2019-02-11T04:38:57.114Z,1013.44
2019-02-11T04:39:57.332Z,1013.42
2019-02-11T04:40:57.668Z,1013.41
2019-02-11T04:41:56.947Z,1013.46
2019-02-11T04:42:57.115Z,1013.53
2019-02-11T04:43:56.647Z,1013.54
2019-02-11T04:44:57.690Z,1013.56
2019-02-11T04:45:56.756Z,1013.57
2019-02-11T04:46:57.084Z,1013.59
2019-02-11T04:47:56.929Z,1013.62
2019-02-11T04:48:57.191Z,1013.63
2019-02-11T04:49:56.755Z,1013.65
2019-02-11T04:50:56.899Z,1013.64
2019-02-11T04:51:59.123Z,1013.63
2019-02-11T04:52:57.433Z,1013.7
2019-02-11T04:53:57.750Z,1013.71
2019-02-11T04:54:56.642Z,1013.71
2019-02-11T04:55:57.220Z,1013.73
2019-02-11T04:56:58.569Z,1013.74
2019-02-11T04:57:56.623Z,1013.78
2019-02-11T04:58:57.257Z,1013.78
2019-02-11T04:59:57.373Z,1013.79
2019-02-11T05:00:58.648Z,1013.83
2019-02-11T05:01:56.827Z,1013.87
2019-02-11T05:02:57.298Z,1013.84
2019-02-11T05:03:57.292Z,1013.85
2019-02-11T05:04:56.791Z,1013.91
2019-02-11T05:05:56.923Z,1013.94
2019-02-11T05:06:57.134Z,1013.93
2019-02-11T05:07:57.555Z,1013.95
2019-02-11T05:08:57.546Z,1014.03
2019-02-11T05:09:57.552Z,1013.97
2019-02-11T05:10:56.644Z,1014.07
2019-02-11T05:11:57.294Z,1014.03
2019-02-11T05:12:56.760Z,1014.09
2019-02-11T05:13:57.005Z,1014.07
2019-02-11T05:14:57.276Z,1014.05
2019-02-11T05:15:56.654Z,1014.1
2019-02-11T05:16:56.984Z,1014.11
2019-02-11T05:17:57.420Z,1014.1
2019-02-11T05:18:57.144Z,1014.09
2019-02-11T05:19:57.133Z,1014.15
2019-02-11T05:20:56.878Z,1014.16
2019-02-11T05:21:56.684Z,1014.16
2019-02-11T05:22:57.139Z,1014.21
2019-02-11T05:23:56.707Z,1014.19
2019-02-11T05:24:57.878Z,1014.22
2019-02-11T05:25:56.862Z,1014.21
2019-02-11T05:26:57.575Z,1014.2
2019-02-11T05:27:57.155Z,1014.27
2019-02-11T05:28:56.779Z,1014.21
2019-02-11T05:29:57.691Z,1014.29
2019-02-11T05:30:57.098Z,1014.29
2019-02-11T05:31:57.207Z,1014.27
2019-02-11T05:32:56.966Z,1014.29
2019-02-11T05:33:56.747Z,1014.34
2019-02-11T05:34:57.058Z,1014.32
2019-02-11T05:35:57.323Z,1014.38
2019-02-11T05:36:57.172Z,1014.37
2019-02-11T05:37:56.790Z,1014.39
2019-02-11T05:38:56.678Z,1014.39
2019-02-11T05:39:56.861Z,1014.4
2019-02-11T05:40:56.648Z,1014.43
2019-02-11T05:41:56.948Z,1014.46
2019-02-11T05:42:57.244Z,1014.48
2019-02-11T05:43:56.705Z,1014.5
2019-02-11T05:44:56.933Z,1014.53
2019-02-11T05:45:57.019Z,1014.57
2019-02-11T05:46:56.728Z,1014.58
2019-02-11T05:47:57.234Z,1014.59
2019-02-11T05:48:57.058Z,1014.58
2019-02-11T05:49:57.230Z,1014.68
2019-02-11T05:50:57.575Z,1014.7
2019-02-11T05:51:56.668Z,1014.67
2019-02-11T05:52:56.875Z,1014.71
2019-02-11T05:53:56.714Z,1014.74
2019-02-11T05:54:56.957Z,1014.76
2019-02-11T05:55:56.787Z,1014.76
2019-02-11T05:56:57.081Z,1014.79
2019-02-11T05:57:57.169Z,1014.83
2019-02-11T05:58:58.690Z,1014.89
2019-02-11T05:59:57.511Z,1014.91
2019-02-11T06:00:56.823Z,1014.91
2019-02-11T06:01:57.188Z,1014.98
2019-02-11T06:02:56.583Z,1015
2019-02-11T06:03:56.906Z,1015.06
2019-02-11T06:04:56.802Z,1015.05
2019-02-11T06:05:57.225Z,1015.1
2019-02-11T06:06:57.547Z,1015.14
2019-02-11T06:07:57.861Z,1015.19
2019-02-11T06:08:56.739Z,1015.21
2019-02-11T06:09:56.753Z,1015.25
2019-02-11T06:10:56.960Z,1015.26
2019-02-11T06:11:56.906Z,1015.33
2019-02-11T06:12:57.701Z,1015.3
2019-02-11T06:13:56.545Z,1015.32
2019-02-11T06:15:04.997Z,1015.37
2019-02-11T06:15:57.281Z,1015.37
2019-02-11T06:16:56.664Z,1015.4
2019-02-11T06:17:57.012Z,1015.46
2019-02-11T06:18:57.428Z,1015.43
2019-02-11T06:19:56.779Z,1015.44
2019-02-11T06:20:56.760Z,1015.45
2019-02-11T06:21:57.547Z,1015.48
2019-02-11T06:22:57.581Z,1015.5
2019-02-11T06:23:57.710Z,1015.5
2019-02-11T06:24:57.061Z,1015.55
2019-02-11T06:25:56.804Z,1015.57
2019-02-11T06:26:58.001Z,1015.55
2019-02-11T06:27:58.544Z,1015.62
2019-02-11T06:28:57.176Z,1015.63
2019-02-11T06:29:58.478Z,1015.65
2019-02-11T06:30:57.010Z,1015.68
2019-02-11T06:31:57.072Z,1015.7
2019-02-11T06:32:57.062Z,1015.77
2019-02-11T06:33:57.346Z,1015.82
2019-02-11T06:34:56.755Z,1015.8
2019-02-11T06:35:56.834Z,1015.79
2019-02-11T06:36:57.138Z,1015.85
2019-02-11T06:37:56.750Z,1015.88
2019-02-11T06:38:56.966Z,1015.89
2019-02-11T06:39:56.830Z,1015.89
2019-02-11T06:40:57.805Z,1015.94
2019-02-11T06:41:57.358Z,1016
2019-02-11T06:42:56.964Z,1015.95
2019-02-11T06:43:56.911Z,1015.99
2019-02-11T06:44:57.711Z,1016.07
2019-02-11T06:45:56.882Z,1016.1
2019-02-11T06:46:56.811Z,1016.13
2019-02-11T06:47:56.752Z,1016.14
2019-02-11T06:48:57.227Z,1016.14
2019-02-11T06:49:56.665Z,1016.17
2019-02-11T06:50:56.792Z,1016.21
2019-02-11T06:51:57.461Z,1016.25
2019-02-11T06:52:56.688Z,1016.3
2019-02-11T06:53:56.797Z,1016.36
2019-02-11T06:54:56.842Z,1016.39
2019-02-11T06:55:56.867Z,1016.38
2019-02-11T06:56:57.699Z,1016.42
2019-02-11T06:57:56.951Z,1016.47
2019-02-11T06:58:56.908Z,1016.5
2019-02-11T06:59:56.771Z,1016.6
2019-02-11T07:00:57.962Z,1016.65
2019-02-11T07:01:56.924Z,1016.7
2019-02-11T07:02:57.010Z,1016.77
2019-02-11T07:03:56.703Z,1016.79
2019-02-11T07:04:57.385Z,1016.81
2019-02-11T07:05:56.734Z,1016.87
2019-02-11T07:06:56.830Z,1016.9
2019-02-11T07:07:58.668Z,1016.95
2019-02-11T07:08:56.850Z,1016.98
2019-02-11T07:09:57.157Z,1017.01
2019-02-11T07:10:56.788Z,1017.03
2019-02-11T07:11:57.025Z,1017.05
2019-02-11T07:12:56.772Z,1017.08
2019-02-11T07:13:57.205Z,1017.11
2019-02-11T07:14:56.593Z,1017.18
2019-02-11T07:15:56.658Z,1017.16
2019-02-11T07:16:56.655Z,1017.21
2019-02-11T07:17:56.717Z,1017.26
2019-02-11T07:18:56.713Z,1017.25
2019-02-11T07:19:56.618Z,1017.25
2019-02-11T07:20:56.816Z,1017.3
2019-02-11T07:21:57.525Z,1017.34
2019-02-11T07:22:57.038Z,1017.35
2019-02-11T07:23:56.929Z,1017.39
2019-02-11T07:24:56.996Z,1017.47
2019-02-11T07:25:56.866Z,1017.43
2019-02-11T07:26:57.015Z,1017.44
2019-02-11T07:27:57.376Z,1017.46
2019-02-11T07:28:57.079Z,1017.49
2019-02-11T07:29:56.908Z,1017.52
2019-02-11T07:30:56.498Z,1017.56
2019-02-11T07:31:56.683Z,1017.58
2019-02-11T07:32:57.118Z,1017.57
2019-02-11T07:33:56.782Z,1017.58
2019-02-11T07:34:56.682Z,1017.6
2019-02-11T07:35:57.086Z,1017.59
2019-02-11T07:36:57.090Z,1017.63
2019-02-11T07:37:56.595Z,1017.69
2019-02-11T07:38:57.180Z,1017.66
2019-02-11T07:39:57.291Z,1017.69
2019-02-11T07:40:57.059Z,1017.71
2019-02-11T07:41:57.208Z,1017.73
2019-02-11T07:42:57.200Z,1017.76
2019-02-11T07:43:56.774Z,1017.78
2019-02-11T07:44:57.060Z,1017.83
2019-02-11T07:45:56.665Z,1017.85
2019-02-11T07:46:57.281Z,1017.92
2019-02-11T07:47:56.638Z,1017.91
2019-02-11T07:48:56.679Z,1017.94
2019-02-11T07:49:58.640Z,1017.97
2019-02-11T07:50:56.571Z,1017.99
2019-02-11T07:51:57.142Z,1018
2019-02-11T07:52:57.225Z,1017.99
2019-02-11T07:53:56.938Z,1017.97
2019-02-11T07:54:56.669Z,1018.05
2019-02-11T07:55:57.284Z,1018.1
2019-02-11T07:56:56.843Z,1018.07
2019-02-11T07:57:57.427Z,1018.13
2019-02-11T07:58:56.850Z,1018.11
2019-02-11T07:59:57.583Z,1018.09
2019-02-11T08:00:57.013Z,1018.13
2019-02-11T08:01:57.273Z,1018.13
2019-02-11T08:02:57.754Z,1018.18
2019-02-11T08:03:57.337Z,1018.22
2019-02-11T08:04:57.284Z,1018.2
2019-02-11T08:05:56.774Z,1018.25
2019-02-11T08:06:56.926Z,1018.24
2019-02-11T08:07:57.593Z,1018.33
2019-02-11T08:08:56.661Z,1018.32
2019-02-11T08:09:57.187Z,1018.35
2019-02-11T08:10:56.717Z,1018.4
2019-02-11T08:11:57.244Z,1018.37
2019-02-11T08:12:56.683Z,1018.42
2019-02-11T08:13:56.708Z,1018.39
2019-02-11T08:14:56.820Z,1018.41
2019-02-11T08:15:57.645Z,1018.46
2019-02-11T08:16:56.760Z,1018.48
2019-02-11T08:17:58.428Z,1018.51
2019-02-11T08:18:56.952Z,1018.52
2019-02-11T08:19:58.654Z,1018.53
2019-02-11T08:20:57.394Z,1018.52
2019-02-11T08:21:57.759Z,1018.56
2019-02-11T08:22:57.010Z,1018.56
2019-02-11T08:23:56.768Z,1018.57
2019-02-11T08:24:57.427Z,1018.62
2019-02-11T08:25:57.127Z,1018.64
2019-02-11T08:26:56.948Z,1018.62
2019-02-11T08:27:56.728Z,1018.61
2019-02-11T08:28:57.035Z,1018.67
2019-02-11T08:29:57.058Z,1018.7
2019-02-11T08:30:56.975Z,1018.71
2019-02-11T08:31:56.830Z,1018.72
2019-02-11T08:32:57.370Z,1018.74
2019-02-11T08:33:58.101Z,1018.79
2019-02-11T08:34:57.572Z,1018.78
2019-02-11T08:35:57.128Z,1018.84
2019-02-11T08:36:56.981Z,1018.82
2019-02-11T08:37:58.481Z,1018.84
2019-02-11T08:38:56.903Z,1018.87
2019-02-11T08:39:57.215Z,1018.92
2019-02-11T08:40:56.698Z,1018.89
2019-02-11T08:41:56.815Z,1018.93
2019-02-11T08:42:57.745Z,1018.95
2019-02-11T08:43:58.424Z,1018.96
2019-02-11T08:44:57.144Z,1018.98
2019-02-11T08:45:57.435Z,1019.04
2019-02-11T08:46:56.879Z,1019.03
2019-02-11T08:47:56.712Z,1019.04
2019-02-11T08:48:56.891Z,1019.08
2019-02-11T08:49:56.663Z,1019.09
2019-02-11T08:50:56.605Z,1019.14
2019-02-11T08:51:57.417Z,1019.08
2019-02-11T08:52:57.194Z,1019.15
2019-02-11T08:53:57.456Z,1019.14
2019-02-11T08:54:57.490Z,1019.16
2019-02-11T08:55:57.125Z,1019.17
2019-02-11T08:56:57.680Z,1019.15
2019-02-11T08:57:56.873Z,1019.16
2019-02-11T08:58:56.713Z,1019.23
2019-02-11T08:59:57.389Z,1019.24
2019-02-11T09:00:57.357Z,1019.26
2019-02-11T09:01:58.472Z,1019.25
2019-02-11T09:02:58.557Z,1019.26
2019-02-11T09:03:57.199Z,1019.31
2019-02-11T09:04:56.640Z,1019.37
2019-02-11T09:05:56.723Z,1019.41
2019-02-11T09:06:58.674Z,1019.5
2019-02-11T09:07:57.129Z,1019.48
2019-02-11T09:08:57.355Z,1019.51
2019-02-11T09:09:56.717Z,1019.52
2019-02-11T09:10:56.934Z,1019.6
2019-02-11T09:11:56.925Z,1019.57
2019-02-11T09:12:57.055Z,1019.58
2019-02-11T09:13:56.888Z,1019.63
2019-02-11T09:14:56.823Z,1019.64
2019-02-11T09:15:56.518Z,1019.65
2019-02-11T09:16:57.195Z,1019.68
2019-02-11T09:17:57.391Z,1019.66
2019-02-11T09:18:56.888Z,1019.7
2019-02-11T09:19:57.208Z,1019.76
2019-02-11T09:20:57.104Z,1019.79
2019-02-11T09:21:56.818Z,1019.78
2019-02-11T09:22:56.715Z,1019.77
2019-02-11T09:23:56.730Z,1019.87
2019-02-11T09:24:56.943Z,1019.83
2019-02-11T09:25:57.659Z,1019.86
2019-02-11T09:26:56.972Z,1019.88
2019-02-11T09:27:56.964Z,1019.87
2019-02-11T09:28:56.641Z,1019.83
2019-02-11T09:29:56.976Z,1019.85
2019-02-11T09:30:57.292Z,1019.88
2019-02-11T09:31:57.518Z,1019.87
2019-02-11T09:32:56.994Z,1019.89
2019-02-11T09:33:56.891Z,1019.92
2019-02-11T09:34:57.594Z,1019.94
2019-02-11T09:35:57.417Z,1019.93
2019-02-11T09:36:57.760Z,1019.93
2019-02-11T09:37:56.783Z,1019.92
2019-02-11T09:38:56.748Z,1019.91
2019-02-11T09:39:56.984Z,1019.96
2019-02-11T09:40:57.155Z,1019.93
2019-02-11T09:41:57.411Z,1020
2019-02-11T09:42:56.908Z,1020.05
2019-02-11T09:43:56.998Z,1020.04
2019-02-11T09:44:57.282Z,1020.09
2019-02-11T09:46:04.300Z,1020.07
2019-02-11T09:46:57.535Z,1020.08
2019-02-11T09:47:57.005Z,1020.12
2019-02-11T09:48:57.117Z,1020.18
2019-02-11T09:49:56.925Z,1020.13
2019-02-11T09:50:56.737Z,1020.16
2019-02-11T09:51:57.046Z,1020.17
2019-02-11T09:52:56.941Z,1020.19
2019-02-11T09:53:57.170Z,1020.24
2019-02-11T09:54:56.676Z,1020.25
2019-02-11T09:55:57.170Z,1020.3
2019-02-11T09:56:56.692Z,1020.32
2019-02-11T09:57:56.828Z,1020.27
2019-02-11T09:58:56.932Z,1020.31
2019-02-11T09:59:57.404Z,1020.32
2019-02-11T10:00:57.405Z,1020.36
2019-02-11T10:01:57.078Z,1020.35
2019-02-11T10:02:57.417Z,1020.38
2019-02-11T10:03:56.602Z,1020.37
2019-02-11T10:04:57.628Z,1020.43
2019-02-11T10:05:57.037Z,1020.48
2019-02-11T10:06:57.037Z,1020.5
2019-02-11T10:07:57.036Z,1020.53
2019-02-11T10:08:57.065Z,1020.6
2019-02-11T10:09:56.932Z,1020.55
2019-02-11T10:10:57.375Z,1020.59
2019-02-11T10:11:57.165Z,1020.61
2019-02-11T10:12:57.171Z,1020.66
2019-02-11T10:13:56.895Z,1020.64
2019-02-11T10:14:56.754Z,1020.67
2019-02-11T10:15:56.902Z,1020.72
2019-02-11T10:16:57.114Z,1020.73
2019-02-11T10:17:57.103Z,1020.78
2019-02-11T10:18:56.594Z,1020.8
2019-02-11T10:19:56.746Z,1020.86
2019-02-11T10:20:56.641Z,1020.91
2019-02-11T10:21:56.546Z,1020.93
2019-02-11T10:22:57.259Z,1020.9
2019-02-11T10:23:56.764Z,1020.92
2019-02-11T10:24:57.063Z,1020.95
2019-02-11T10:25:56.818Z,1021
2019-02-11T10:26:56.503Z,1020.98
2019-02-11T10:27:57.136Z,1020.98
2019-02-11T10:28:56.718Z,1021.01
2019-02-11T10:29:56.902Z,1021.04
2019-02-11T10:30:57.222Z,1021.01
2019-02-11T10:31:58.447Z,1020.99
2019-02-11T10:32:58.504Z,1021.01
2019-02-11T10:33:57.016Z,1021.05
2019-02-11T10:34:56.876Z,1021.04
2019-02-11T10:35:56.746Z,1021.06
2019-02-11T10:36:56.832Z,1021.1
2019-02-11T10:37:57.006Z,1021.05
2019-02-11T10:38:56.619Z,1021.09
2019-02-11T10:39:56.822Z,1021.15
2019-02-11T10:40:56.770Z,1021.14
2019-02-11T10:41:57.202Z,1021.15
2019-02-11T10:42:57.091Z,1021.17
2019-02-11T10:43:57.565Z,1021.19
2019-02-11T10:44:57.750Z,1021.22
2019-02-11T10:45:56.860Z,1021.22
2019-02-11T10:46:56.684Z,1021.22
2019-02-11T10:47:56.994Z,1021.21
2019-02-11T10:48:56.791Z,1021.23
2019-02-11T10:49:56.648Z,1021.21
2019-02-11T10:50:56.944Z,1021.24
2019-02-11T10:51:56.853Z,1021.25
2019-02-11T10:52:56.925Z,1021.26
2019-02-11T10:53:57.709Z,1021.32
2019-02-11T10:54:56.988Z,1021.29
2019-02-11T10:55:56.732Z,1021.35
2019-02-11T10:56:58.454Z,1021.38
2019-02-11T10:57:56.991Z,1021.42
2019-02-11T10:58:57.105Z,1021.41
2019-02-11T10:59:56.927Z,1021.45
2019-02-11T11:00:57.850Z,1021.46
2019-02-11T11:01:56.714Z,1021.44
2019-02-11T11:02:56.679Z,1021.5
2019-02-11T11:03:56.732Z,1021.51
2019-02-11T11:04:56.855Z,1021.51
2019-02-11T11:05:57.368Z,1021.58
2019-02-11T11:06:56.548Z,1021.53
2019-02-11T11:07:56.589Z,1021.58
2019-02-11T11:08:56.657Z,1021.61
2019-02-11T11:09:56.752Z,1021.56
2019-02-11T11:10:57.110Z,1021.62
2019-02-11T11:11:56.548Z,1021.64
2019-02-11T11:12:56.437Z,1021.63
2019-02-11T11:13:56.608Z,1021.65
2019-02-11T11:14:56.811Z,1021.63
2019-02-11T11:15:56.682Z,1021.63
2019-02-11T11:16:57.052Z,1021.67
2019-02-11T11:17:56.808Z,1021.63
2019-02-11T11:18:57.039Z,1021.7
2019-02-11T11:19:56.757Z,1021.68
2019-02-11T11:20:58.395Z,1021.67
2019-02-11T11:21:57.038Z,1021.71
2019-02-11T11:22:57.168Z,1021.7
2019-02-11T11:23:58.291Z,1021.7
2019-02-11T11:24:56.968Z,1021.72
2019-02-11T11:25:56.871Z,1021.7
2019-02-11T11:26:57.002Z,1021.77
2019-02-11T11:27:56.987Z,1021.8
2019-02-11T11:28:57.165Z,1021.79
2019-02-11T11:29:56.698Z,1021.85
2019-02-11T11:30:57.114Z,1021.84
2019-02-11T11:31:58.124Z,1021.84
2019-02-11T11:32:57.822Z,1021.83
2019-02-11T11:33:56.384Z,1021.83
2019-02-11T11:34:56.673Z,1021.89
2019-02-11T11:35:56.614Z,1021.85
2019-02-11T11:36:56.867Z,1021.82
2019-02-11T11:37:57.312Z,1021.86
2019-02-11T11:38:56.997Z,1021.86
2019-02-11T11:39:57.012Z,1021.88
2019-02-11T11:40:56.993Z,1021.88
2019-02-11T11:41:56.903Z,1021.9
2019-02-11T11:42:56.909Z,1021.95
2019-02-11T11:43:56.678Z,1021.94
2019-02-11T11:44:57.252Z,1021.94
2019-02-11T11:45:56.832Z,1021.99
2019-02-11T11:46:56.836Z,1021.97
2019-02-11T11:47:56.753Z,1021.94
2019-02-11T11:48:56.954Z,1021.9
2019-02-11T11:49:56.955Z,1021.93
2019-02-11T11:50:56.869Z,1021.98
2019-02-11T11:51:56.906Z,1021.93
2019-02-11T11:52:56.986Z,1021.96
2019-02-11T11:53:56.705Z,1021.98
2019-02-11T11:54:56.895Z,1021.93
2019-02-11T11:55:57.007Z,1022
2019-02-11T11:56:59.781Z,1021.93
2019-02-11T11:57:56.937Z,1021.92
2019-02-11T11:58:57.017Z,1021.92
2019-02-11T11:59:56.885Z,1021.88
2019-02-11T12:00:56.925Z,1021.91
2019-02-11T12:01:57.492Z,1021.95
2019-02-11T12:03:05.903Z,1021.97
2019-02-11T12:03:58.653Z,1021.99
2019-02-11T12:04:57.019Z,1022
2019-02-11T12:05:57.183Z,1022.06
2019-02-11T12:06:57.008Z,1022
2019-02-11T12:07:56.799Z,1022.03
2019-02-11T12:08:59.763Z,1022.05